sensor_id;sensor_type;location;lat;lon;timestamp;temperature;humidity
47414;DHT22;33163;0.000;0.000;2023-05-07T00:02:15;20.40;68.40
47414;DHT22;33163;0.000;0.000;2023-05-07T00:04:44;20.40;68.30
47414;DHT22;33163;0.000;0.000;2023-05-07T00:07:10;20.40;68.30
47414;DHT22;33163;0.000;0.000;2023-05-07T00:09:37;20.40;68.40
47414;DHT22;33163;0.000;0.000;2023-05-07T00:12:04;20.40;68.30
47414;DHT22;33163;0.000;0.000;2023-05-07T00:14:31;20.40;68.40
47414;DHT22;33163;0.000;0.000;2023-05-07T00:16:57;20.40;68.30
47414;DHT22;33163;0.000;0.000;2023-05-07T00:19:24;20.40;68.40
47414;DHT22;33163;0.000;0.000;2023-05-07T00:21:52;20.40;68.30
47414;DHT22;33163;0.000;0.000;2023-05-07T00:24:21;20.40;68.30
47414;DHT22;33163;0.000;0.000;2023-05-07T00:26:48;20.40;68.30
47414;DHT22;33163;0.000;0.000;2023-05-07T00:29:14;20.40;68.20
47414;DHT22;33163;0.000;0.000;2023-05-07T00:31:41;20.40;68.30
47414;DHT22;33163;0.000;0.000;2023-05-07T00:34:08;20.40;68.20
47414;DHT22;33163;0.000;0.000;2023-05-07T00:36:35;20.40;68.20
47414;DHT22;33163;0.000;0.000;2023-05-07T00:39:03;20.40;68.50
47414;DHT22;33163;0.000;0.000;2023-05-07T00:41:30;20.40;68.10
47414;DHT22;33163;0.000;0.000;2023-05-07T00:43:57;20.40;68.20
47414;DHT22;33163;0.000;0.000;2023-05-07T00:46:24;20.40;68.20
47414;DHT22;33163;0.000;0.000;2023-05-07T00:48:51;20.40;68.20
47414;DHT22;33163;0.000;0.000;2023-05-07T00:51:18;20.40;68.20
47414;DHT22;33163;0.000;0.000;2023-05-07T00:53:45;20.40;68.10
47414;DHT22;33163;0.000;0.000;2023-05-07T00:56:14;20.40;68.10
47414;DHT22;33163;0.000;0.000;2023-05-07T00:58:41;20.40;68.00
47414;DHT22;33163;0.000;0.000;2023-05-07T01:01:08;20.40;68.10
47414;DHT22;33163;0.000;0.000;2023-05-07T01:03:35;20.40;68.10
47414;DHT22;33163;0.000;0.000;2023-05-07T01:06:02;20.40;68.00
47414;DHT22;33163;0.000;0.000;2023-05-07T01:08:30;20.40;68.10
47414;DHT22;33163;0.000;0.000;2023-05-07T01:10:57;20.30;68.00
47414;DHT22;33163;0.000;0.000;2023-05-07T01:13:26;20.30;68.10
47414;DHT22;33163;0.000;0.000;2023-05-07T01:15:53;20.40;68.00
47414;DHT22;33163;0.000;0.000;2023-05-07T01:18:20;20.40;68.00
47414;DHT22;33163;0.000;0.000;2023-05-07T01:20:47;20.40;68.00
47414;DHT22;33163;0.000;0.000;2023-05-07T01:23:15;20.30;67.90
47414;DHT22;33163;0.000;0.000;2023-05-07T01:25:42;20.40;68.00
47414;DHT22;33163;0.000;0.000;2023-05-07T01:28:09;20.40;67.90
47414;DHT22;33163;0.000;0.000;2023-05-07T01:30:36;20.30;68.00
47414;DHT22;33163;0.000;0.000;2023-05-07T01:33:08;20.30;67.90
47414;DHT22;33163;0.000;0.000;2023-05-07T01:35:38;20.30;67.90
47414;DHT22;33163;0.000;0.000;2023-05-07T01:38:06;20.30;68.00
47414;DHT22;33163;0.000;0.000;2023-05-07T01:40:35;20.30;67.90
47414;DHT22;33163;0.000;0.000;2023-05-07T01:43:02;20.30;68.00
47414;DHT22;33163;0.000;0.000;2023-05-07T01:45:30;20.30;67.90
47414;DHT22;33163;0.000;0.000;2023-05-07T01:47:58;20.30;67.80
47414;DHT22;33163;0.000;0.000;2023-05-07T01:50:25;20.30;68.60
47414;DHT22;33163;0.000;0.000;2023-05-07T01:52:52;20.30;67.90
47414;DHT22;33163;0.000;0.000;2023-05-07T01:55:19;20.30;68.00
47414;DHT22;33163;0.000;0.000;2023-05-07T01:57:47;20.30;67.90
47414;DHT22;33163;0.000;0.000;2023-05-07T02:00:14;20.30;67.80
47414;DHT22;33163;0.000;0.000;2023-05-07T02:02:41;20.30;67.90
47414;DHT22;33163;0.000;0.000;2023-05-07T02:05:08;20.30;67.90
47414;DHT22;33163;0.000;0.000;2023-05-07T02:07:35;20.30;67.90
47414;DHT22;33163;0.000;0.000;2023-05-07T02:10:02;20.30;68.00
47414;DHT22;33163;0.000;0.000;2023-05-07T02:12:29;20.30;68.00
47414;DHT22;33163;0.000;0.000;2023-05-07T02:14:57;20.30;68.00
47414;DHT22;33163;0.000;0.000;2023-05-07T02:17:24;20.30;68.00
47414;DHT22;33163;0.000;0.000;2023-05-07T02:19:51;20.30;67.90
47414;DHT22;33163;0.000;0.000;2023-05-07T02:22:17;20.30;68.00
47414;DHT22;33163;0.000;0.000;2023-05-07T02:24:44;20.30;68.00
47414;DHT22;33163;0.000;0.000;2023-05-07T02:27:11;20.30;67.90
47414;DHT22;33163;0.000;0.000;2023-05-07T02:29:38;20.30;68.00
47414;DHT22;33163;0.000;0.000;2023-05-07T02:32:06;20.30;68.00
47414;DHT22;33163;0.000;0.000;2023-05-07T02:34:32;20.30;68.00
47414;DHT22;33163;0.000;0.000;2023-05-07T02:36:59;20.30;68.00
47414;DHT22;33163;0.000;0.000;2023-05-07T02:39:26;20.30;68.00
47414;DHT22;33163;0.000;0.000;2023-05-07T02:41:53;20.30;68.00
47414;DHT22;33163;0.000;0.000;2023-05-07T02:44:19;20.30;68.00
47414;DHT22;33163;0.000;0.000;2023-05-07T02:46:46;20.30;68.10
47414;DHT22;33163;0.000;0.000;2023-05-07T02:49:14;20.30;68.00
47414;DHT22;33163;0.000;0.000;2023-05-07T02:51:41;20.30;68.00
47414;DHT22;33163;0.000;0.000;2023-05-07T02:54:07;20.20;67.90
47414;DHT22;33163;0.000;0.000;2023-05-07T02:56:34;20.30;68.00
47414;DHT22;33163;0.000;0.000;2023-05-07T02:59:01;20.30;68.10
47414;DHT22;33163;0.000;0.000;2023-05-07T03:01:28;20.20;68.00
47414;DHT22;33163;0.000;0.000;2023-05-07T03:03:54;20.20;68.00
47414;DHT22;33163;0.000;0.000;2023-05-07T03:06:23;20.20;68.10
47414;DHT22;33163;0.000;0.000;2023-05-07T03:08:50;20.20;68.10
47414;DHT22;33163;0.000;0.000;2023-05-07T03:11:16;20.20;68.00
47414;DHT22;33163;0.000;0.000;2023-05-07T03:13:43;20.20;68.00
47414;DHT22;33163;0.000;0.000;2023-05-07T03:16:10;20.20;68.00
47414;DHT22;33163;0.000;0.000;2023-05-07T03:18:37;20.20;68.00
47414;DHT22;33163;0.000;0.000;2023-05-07T03:21:04;20.20;68.10
47414;DHT22;33163;0.000;0.000;2023-05-07T03:23:32;20.20;67.90
47414;DHT22;33163;0.000;0.000;2023-05-07T03:25:58;20.20;68.00
47414;DHT22;33163;0.000;0.000;2023-05-07T03:28:25;20.20;68.10
47414;DHT22;33163;0.000;0.000;2023-05-07T03:30:52;20.20;68.00
47414;DHT22;33163;0.000;0.000;2023-05-07T03:33:19;20.20;68.10
47414;DHT22;33163;0.000;0.000;2023-05-07T03:35:45;20.20;68.10
47414;DHT22;33163;0.000;0.000;2023-05-07T03:38:12;20.20;68.10
47414;DHT22;33163;0.000;0.000;2023-05-07T03:40:40;20.20;68.10
47414;DHT22;33163;0.000;0.000;2023-05-07T03:43:07;20.20;68.10
47414;DHT22;33163;0.000;0.000;2023-05-07T03:45:34;20.20;68.00
47414;DHT22;33163;0.000;0.000;2023-05-07T03:48:00;20.20;68.10
47414;DHT22;33163;0.000;0.000;2023-05-07T03:50:27;20.20;68.10
47414;DHT22;33163;0.000;0.000;2023-05-07T03:52:54;20.20;68.10
47414;DHT22;33163;0.000;0.000;2023-05-07T03:55:21;20.20;68.10
47414;DHT22;33163;0.000;0.000;2023-05-07T03:57:49;20.20;68.10
47414;DHT22;33163;0.000;0.000;2023-05-07T04:00:16;20.20;68.20
47414;DHT22;33163;0.000;0.000;2023-05-07T04:02:42;20.20;68.20
47414;DHT22;33163;0.000;0.000;2023-05-07T04:05:09;20.20;68.10
47414;DHT22;33163;0.000;0.000;2023-05-07T04:07:36;20.20;68.20
47414;DHT22;33163;0.000;0.000;2023-05-07T04:10:03;20.20;68.20
47414;DHT22;33163;0.000;0.000;2023-05-07T04:12:30;20.20;68.20
47414;DHT22;33163;0.000;0.000;2023-05-07T04:14:58;20.20;68.20
47414;DHT22;33163;0.000;0.000;2023-05-07T04:17:25;20.20;68.10
47414;DHT22;33163;0.000;0.000;2023-05-07T04:19:51;20.20;68.10
47414;DHT22;33163;0.000;0.000;2023-05-07T04:22:18;20.20;68.20
47414;DHT22;33163;0.000;0.000;2023-05-07T04:24:45;20.20;68.30
47414;DHT22;33163;0.000;0.000;2023-05-07T04:27:12;20.20;68.20
47414;DHT22;33163;0.000;0.000;2023-05-07T04:29:38;20.10;68.20
47414;DHT22;33163;0.000;0.000;2023-05-07T04:32:09;20.10;68.20
47414;DHT22;33163;0.000;0.000;2023-05-07T04:34:35;20.20;68.20
47414;DHT22;33163;0.000;0.000;2023-05-07T04:37:02;20.10;68.20
47414;DHT22;33163;0.000;0.000;2023-05-07T04:39:29;20.20;68.20
47414;DHT22;33163;0.000;0.000;2023-05-07T04:41:56;20.20;68.20
47414;DHT22;33163;0.000;0.000;2023-05-07T04:44:22;20.20;68.20
47414;DHT22;33163;0.000;0.000;2023-05-07T04:46:50;20.10;68.30
47414;DHT22;33163;0.000;0.000;2023-05-07T04:49:18;20.10;68.30
47414;DHT22;33163;0.000;0.000;2023-05-07T04:51:45;20.20;68.30
47414;DHT22;33163;0.000;0.000;2023-05-07T04:54:11;20.10;68.30
47414;DHT22;33163;0.000;0.000;2023-05-07T04:56:38;20.10;68.30
47414;DHT22;33163;0.000;0.000;2023-05-07T04:59:05;20.10;68.30
47414;DHT22;33163;0.000;0.000;2023-05-07T05:01:33;20.10;68.20
47414;DHT22;33163;0.000;0.000;2023-05-07T05:04:00;20.10;68.30
47414;DHT22;33163;0.000;0.000;2023-05-07T05:06:28;20.10;68.20
47414;DHT22;33163;0.000;0.000;2023-05-07T05:08:56;20.10;68.30
47414;DHT22;33163;0.000;0.000;2023-05-07T05:11:22;20.10;68.30
47414;DHT22;33163;0.000;0.000;2023-05-07T05:13:49;20.10;68.30
47414;DHT22;33163;0.000;0.000;2023-05-07T05:16:16;20.20;68.40
47414;DHT22;33163;0.000;0.000;2023-05-07T05:18:42;20.10;68.30
47414;DHT22;33163;0.000;0.000;2023-05-07T05:21:09;20.10;68.30
47414;DHT22;33163;0.000;0.000;2023-05-07T05:23:37;20.10;68.30
47414;DHT22;33163;0.000;0.000;2023-05-07T05:26:04;20.10;68.30
47414;DHT22;33163;0.000;0.000;2023-05-07T05:28:31;20.10;68.30
47414;DHT22;33163;0.000;0.000;2023-05-07T05:30:58;20.10;68.30
47414;DHT22;33163;0.000;0.000;2023-05-07T05:33:24;20.10;68.30
47414;DHT22;33163;0.000;0.000;2023-05-07T05:35:53;20.10;68.30
47414;DHT22;33163;0.000;0.000;2023-05-07T05:38:20;20.10;68.40
47414;DHT22;33163;0.000;0.000;2023-05-07T05:40:48;20.10;68.40
47414;DHT22;33163;0.000;0.000;2023-05-07T05:43:15;20.10;68.40
47414;DHT22;33163;0.000;0.000;2023-05-07T05:45:41;20.10;68.30
47414;DHT22;33163;0.000;0.000;2023-05-07T05:48:08;20.10;68.40
47414;DHT22;33163;0.000;0.000;2023-05-07T05:50:35;20.10;68.40
47414;DHT22;33163;0.000;0.000;2023-05-07T05:53:02;20.10;68.40
47414;DHT22;33163;0.000;0.000;2023-05-07T05:55:29;20.10;68.50
47414;DHT22;33163;0.000;0.000;2023-05-07T05:57:59;20.10;68.50
47414;DHT22;33163;0.000;0.000;2023-05-07T06:00:25;20.10;68.60
47414;DHT22;33163;0.000;0.000;2023-05-07T06:02:52;20.10;68.60
47414;DHT22;33163;0.000;0.000;2023-05-07T06:05:19;20.20;68.70
47414;DHT22;33163;0.000;0.000;2023-05-07T06:07:46;20.20;68.70
47414;DHT22;33163;0.000;0.000;2023-05-07T06:10:12;20.10;68.70
47414;DHT22;33163;0.000;0.000;2023-05-07T06:12:39;20.20;68.80
47414;DHT22;33163;0.000;0.000;2023-05-07T06:15:10;20.10;68.80
47414;DHT22;33163;0.000;0.000;2023-05-07T06:17:43;20.20;68.80
47414;DHT22;33163;0.000;0.000;2023-05-07T06:20:10;20.20;68.80
47414;DHT22;33163;0.000;0.000;2023-05-07T06:22:37;20.20;68.80
47414;DHT22;33163;0.000;0.000;2023-05-07T06:25:04;20.20;68.90
47414;DHT22;33163;0.000;0.000;2023-05-07T06:27:31;20.20;68.90
47414;DHT22;33163;0.000;0.000;2023-05-07T06:29:58;20.20;68.90
47414;DHT22;33163;0.000;0.000;2023-05-07T06:32:27;20.20;68.80
47414;DHT22;33163;0.000;0.000;2023-05-07T06:34:54;20.20;68.70
47414;DHT22;33163;0.000;0.000;2023-05-07T06:37:30;20.20;68.70
47414;DHT22;33163;0.000;0.000;2023-05-07T06:39:57;20.20;68.60
47414;DHT22;33163;0.000;0.000;2023-05-07T06:42:23;20.20;68.50
47414;DHT22;33163;0.000;0.000;2023-05-07T06:44:50;20.20;68.50
47414;DHT22;33163;0.000;0.000;2023-05-07T06:47:19;20.20;68.60
47414;DHT22;33163;0.000;0.000;2023-05-07T06:49:47;20.20;68.70
47414;DHT22;33163;0.000;0.000;2023-05-07T06:52:14;20.20;68.70
47414;DHT22;33163;0.000;0.000;2023-05-07T06:54:41;20.20;68.70
47414;DHT22;33163;0.000;0.000;2023-05-07T06:57:07;20.20;68.70
47414;DHT22;33163;0.000;0.000;2023-05-07T06:59:34;20.20;68.60
47414;DHT22;33163;0.000;0.000;2023-05-07T07:02:01;20.20;68.50
47414;DHT22;33163;0.000;0.000;2023-05-07T07:04:27;20.20;68.50
47414;DHT22;33163;0.000;0.000;2023-05-07T07:06:56;20.30;68.60
47414;DHT22;33163;0.000;0.000;2023-05-07T07:09:23;20.30;68.70
47414;DHT22;33163;0.000;0.000;2023-05-07T07:11:49;20.30;68.90
47414;DHT22;33163;0.000;0.000;2023-05-07T07:14:16;20.30;68.90
47414;DHT22;33163;0.000;0.000;2023-05-07T07:16:43;20.30;69.00
47414;DHT22;33163;0.000;0.000;2023-05-07T07:19:10;20.30;68.90
47414;DHT22;33163;0.000;0.000;2023-05-07T07:21:36;20.30;68.80
47414;DHT22;33163;0.000;0.000;2023-05-07T07:24:05;20.30;68.60
47414;DHT22;33163;0.000;0.000;2023-05-07T07:26:31;20.30;68.70
47414;DHT22;33163;0.000;0.000;2023-05-07T07:28:58;20.30;68.80
47414;DHT22;33163;0.000;0.000;2023-05-07T07:31:26;20.30;68.80
47414;DHT22;33163;0.000;0.000;2023-05-07T07:33:52;20.30;68.80
47414;DHT22;33163;0.000;0.000;2023-05-07T07:36:19;20.40;68.90
47414;DHT22;33163;0.000;0.000;2023-05-07T07:38:46;20.40;69.20
47414;DHT22;33163;0.000;0.000;2023-05-07T07:41:14;20.40;69.30
47414;DHT22;33163;0.000;0.000;2023-05-07T07:43:41;20.40;69.30
47414;DHT22;33163;0.000;0.000;2023-05-07T07:46:07;20.40;69.20
47414;DHT22;33163;0.000;0.000;2023-05-07T07:48:34;20.30;69.00
47414;DHT22;33163;0.000;0.000;2023-05-07T07:51:01;20.30;69.10
47414;DHT22;33163;0.000;0.000;2023-05-07T07:53:27;20.30;70.40
47414;DHT22;33163;0.000;0.000;2023-05-07T07:55:54;20.30;71.10
47414;DHT22;33163;0.000;0.000;2023-05-07T07:58:22;20.30;71.30
47414;DHT22;33163;0.000;0.000;2023-05-07T08:00:50;20.30;70.90
47414;DHT22;33163;0.000;0.000;2023-05-07T08:03:17;20.30;70.40
47414;DHT22;33163;0.000;0.000;2023-05-07T08:05:45;20.30;70.30
47414;DHT22;33163;0.000;0.000;2023-05-07T08:08:11;20.30;70.20
47414;DHT22;33163;0.000;0.000;2023-05-07T08:10:38;20.30;70.20
47414;DHT22;33163;0.000;0.000;2023-05-07T08:13:05;20.30;70.00
47414;DHT22;33163;0.000;0.000;2023-05-07T08:15:33;20.30;70.00
47414;DHT22;33163;0.000;0.000;2023-05-07T08:20:28;20.30;70.00
47414;DHT22;33163;0.000;0.000;2023-05-07T08:22:55;20.40;70.00
47414;DHT22;33163;0.000;0.000;2023-05-07T08:25:22;20.40;70.00
47414;DHT22;33163;0.000;0.000;2023-05-07T08:27:48;20.40;69.90
47414;DHT22;33163;0.000;0.000;2023-05-07T08:30:15;20.40;69.90
47414;DHT22;33163;0.000;0.000;2023-05-07T08:32:43;20.40;69.90
47414;DHT22;33163;0.000;0.000;2023-05-07T08:35:10;20.40;69.80
47414;DHT22;33163;0.000;0.000;2023-05-07T08:37:37;20.40;69.80
47414;DHT22;33163;0.000;0.000;2023-05-07T08:40:05;20.40;69.80
47414;DHT22;33163;0.000;0.000;2023-05-07T08:42:35;20.40;69.80
47414;DHT22;33163;0.000;0.000;2023-05-07T08:45:04;20.40;69.80
47414;DHT22;33163;0.000;0.000;2023-05-07T08:47:42;20.40;69.80
47414;DHT22;33163;0.000;0.000;2023-05-07T08:50:12;20.40;69.80
47414;DHT22;33163;0.000;0.000;2023-05-07T08:52:39;20.50;69.80
47414;DHT22;33163;0.000;0.000;2023-05-07T08:55:07;20.50;69.70
47414;DHT22;33163;0.000;0.000;2023-05-07T08:57:35;20.50;69.70
47414;DHT22;33163;0.000;0.000;2023-05-07T09:00:02;20.50;69.60
47414;DHT22;33163;0.000;0.000;2023-05-07T09:02:29;20.50;69.60
47414;DHT22;33163;0.000;0.000;2023-05-07T09:04:56;20.50;69.60
47414;DHT22;33163;0.000;0.000;2023-05-07T09:07:25;20.60;69.60
47414;DHT22;33163;0.000;0.000;2023-05-07T09:09:52;20.60;69.60
47414;DHT22;33163;0.000;0.000;2023-05-07T09:12:19;20.60;69.60
47414;DHT22;33163;0.000;0.000;2023-05-07T09:14:45;20.60;69.70
47414;DHT22;33163;0.000;0.000;2023-05-07T09:17:12;20.50;69.60
47414;DHT22;33163;0.000;0.000;2023-05-07T09:19:39;20.60;69.60
47414;DHT22;33163;0.000;0.000;2023-05-07T09:22:06;20.60;69.70
47414;DHT22;33163;0.000;0.000;2023-05-07T09:24:34;20.60;69.70
47414;DHT22;33163;0.000;0.000;2023-05-07T09:27:03;20.60;69.60
47414;DHT22;33163;0.000;0.000;2023-05-07T09:29:30;20.60;69.60
47414;DHT22;33163;0.000;0.000;2023-05-07T09:32:01;20.60;69.60
47414;DHT22;33163;0.000;0.000;2023-05-07T09:34:28;20.60;69.50
47414;DHT22;33163;0.000;0.000;2023-05-07T09:36:55;20.60;69.40
47414;DHT22;33163;0.000;0.000;2023-05-07T09:39:23;20.70;69.30
47414;DHT22;33163;0.000;0.000;2023-05-07T09:41:51;20.70;69.40
47414;DHT22;33163;0.000;0.000;2023-05-07T09:44:20;20.70;69.40
47414;DHT22;33163;0.000;0.000;2023-05-07T09:46:53;20.70;69.50
47414;DHT22;33163;0.000;0.000;2023-05-07T09:49:22;20.70;69.50
47414;DHT22;33163;0.000;0.000;2023-05-07T09:51:51;20.60;69.60
47414;DHT22;33163;0.000;0.000;2023-05-07T09:54:18;20.70;69.50
47414;DHT22;33163;0.000;0.000;2023-05-07T09:56:45;20.70;69.50
47414;DHT22;33163;0.000;0.000;2023-05-07T09:59:16;20.70;69.50
47414;DHT22;33163;0.000;0.000;2023-05-07T10:01:44;20.70;69.40
47414;DHT22;33163;0.000;0.000;2023-05-07T10:04:11;20.70;69.40
47414;DHT22;33163;0.000;0.000;2023-05-07T10:06:39;20.70;69.40
47414;DHT22;33163;0.000;0.000;2023-05-07T10:09:06;20.70;69.90
47414;DHT22;33163;0.000;0.000;2023-05-07T10:11:34;20.70;70.20
47414;DHT22;33163;0.000;0.000;2023-05-07T10:14:01;20.70;70.60
47414;DHT22;33163;0.000;0.000;2023-05-07T10:16:31;20.80;70.40
47414;DHT22;33163;0.000;0.000;2023-05-07T10:19:02;20.90;70.60
47414;DHT22;33163;0.000;0.000;2023-05-07T10:21:30;20.90;70.50
47414;DHT22;33163;0.000;0.000;2023-05-07T10:23:59;20.90;70.60
47414;DHT22;33163;0.000;0.000;2023-05-07T10:26:27;20.90;70.70
47414;DHT22;33163;0.000;0.000;2023-05-07T10:28:59;20.90;71.50
47414;DHT22;33163;0.000;0.000;2023-05-07T10:31:50;20.90;71.10
47414;DHT22;33163;0.000;0.000;2023-05-07T10:34:23;20.90;71.00
47414;DHT22;33163;0.000;0.000;2023-05-07T10:36:52;20.80;71.10
47414;DHT22;33163;0.000;0.000;2023-05-07T10:39:20;20.80;70.90
47414;DHT22;33163;0.000;0.000;2023-05-07T10:41:47;20.80;70.90
47414;DHT22;33163;0.000;0.000;2023-05-07T10:44:25;20.80;70.90
47414;DHT22;33163;0.000;0.000;2023-05-07T10:47:07;20.80;70.80
47414;DHT22;33163;0.000;0.000;2023-05-07T10:49:35;20.80;70.90
47414;DHT22;33163;0.000;0.000;2023-05-07T10:52:13;20.80;70.80
47414;DHT22;33163;0.000;0.000;2023-05-07T10:54:41;20.90;70.80
47414;DHT22;33163;0.000;0.000;2023-05-07T10:57:32;20.80;70.70
47414;DHT22;33163;0.000;0.000;2023-05-07T10:59:59;20.90;71.00
47414;DHT22;33163;0.000;0.000;2023-05-07T11:05:29;20.90;70.80
47414;DHT22;33163;0.000;0.000;2023-05-07T11:07:57;20.90;70.70
47414;DHT22;33163;0.000;0.000;2023-05-07T11:10:47;20.90;70.50
47414;DHT22;33163;0.000;0.000;2023-05-07T11:13:14;21.00;70.70
47414;DHT22;33163;0.000;0.000;2023-05-07T11:15:43;21.00;70.50
47414;DHT22;33163;0.000;0.000;2023-05-07T11:18:11;21.00;70.30
47414;DHT22;33163;0.000;0.000;2023-05-07T11:20:51;21.00;70.30
47414;DHT22;33163;0.000;0.000;2023-05-07T11:23:56;21.00;70.30
47414;DHT22;33163;0.000;0.000;2023-05-07T11:26:27;21.00;70.20
47414;DHT22;33163;0.000;0.000;2023-05-07T11:28:54;20.90;70.00
47414;DHT22;33163;0.000;0.000;2023-05-07T11:31:24;20.90;69.90
47414;DHT22;33163;0.000;0.000;2023-05-07T11:33:52;20.90;69.80
47414;DHT22;33163;0.000;0.000;2023-05-07T11:36:21;20.90;69.80
47414;DHT22;33163;0.000;0.000;2023-05-07T11:38:48;20.90;69.80
47414;DHT22;33163;0.000;0.000;2023-05-07T11:41:16;20.90;70.00
47414;DHT22;33163;0.000;0.000;2023-05-07T11:43:57;21.00;70.20
47414;DHT22;33163;0.000;0.000;2023-05-07T11:46:24;21.00;69.70
47414;DHT22;33163;0.000;0.000;2023-05-07T11:48:51;21.00;70.50
47414;DHT22;33163;0.000;0.000;2023-05-07T11:51:23;21.00;69.80
47414;DHT22;33163;0.000;0.000;2023-05-07T11:53:51;20.90;69.80
47414;DHT22;33163;0.000;0.000;2023-05-07T11:56:18;20.90;69.90
47414;DHT22;33163;0.000;0.000;2023-05-07T11:58:46;20.90;69.60
47414;DHT22;33163;0.000;0.000;2023-05-07T12:01:14;20.90;69.30
47414;DHT22;33163;0.000;0.000;2023-05-07T12:03:42;20.90;69.50
47414;DHT22;33163;0.000;0.000;2023-05-07T12:06:09;20.90;69.20
47414;DHT22;33163;0.000;0.000;2023-05-07T12:08:39;20.90;69.40
47414;DHT22;33163;0.000;0.000;2023-05-07T12:11:13;20.90;69.50
47414;DHT22;33163;0.000;0.000;2023-05-07T12:13:41;20.90;69.80
47414;DHT22;33163;0.000;0.000;2023-05-07T12:16:08;20.80;70.70
47414;DHT22;33163;0.000;0.000;2023-05-07T12:18:36;20.80;71.80
47414;DHT22;33163;0.000;0.000;2023-05-07T12:21:05;20.70;72.50
47414;DHT22;33163;0.000;0.000;2023-05-07T12:23:32;20.80;72.60
47414;DHT22;33163;0.000;0.000;2023-05-07T12:26:01;20.80;72.90
47414;DHT22;33163;0.000;0.000;2023-05-07T12:28:28;20.70;73.70
47414;DHT22;33163;0.000;0.000;2023-05-07T12:30:56;20.70;74.10
47414;DHT22;33163;0.000;0.000;2023-05-07T12:33:25;20.70;75.40
47414;DHT22;33163;0.000;0.000;2023-05-07T12:35:54;20.70;75.70
47414;DHT22;33163;0.000;0.000;2023-05-07T12:38:21;20.70;75.50
47414;DHT22;33163;0.000;0.000;2023-05-07T12:40:49;20.70;74.80
47414;DHT22;33163;0.000;0.000;2023-05-07T12:43:18;20.70;74.70
47414;DHT22;33163;0.000;0.000;2023-05-07T12:45:47;20.70;74.80
47414;DHT22;33163;0.000;0.000;2023-05-07T12:48:14;20.70;75.10
47414;DHT22;33163;0.000;0.000;2023-05-07T12:50:41;20.70;74.70
47414;DHT22;33163;0.000;0.000;2023-05-07T12:53:10;20.70;75.40
47414;DHT22;33163;0.000;0.000;2023-05-07T12:55:42;20.70;75.00
47414;DHT22;33163;0.000;0.000;2023-05-07T12:58:14;20.70;75.10
47414;DHT22;33163;0.000;0.000;2023-05-07T13:00:42;20.70;75.90
47414;DHT22;33163;0.000;0.000;2023-05-07T13:03:10;20.60;76.00
47414;DHT22;33163;0.000;0.000;2023-05-07T13:05:37;20.70;76.60
47414;DHT22;33163;0.000;0.000;2023-05-07T13:08:04;20.70;76.90
47414;DHT22;33163;0.000;0.000;2023-05-07T13:10:31;20.70;76.90
47414;DHT22;33163;0.000;0.000;2023-05-07T13:12:59;20.70;76.50
47414;DHT22;33163;0.000;0.000;2023-05-07T13:15:26;20.70;77.00
47414;DHT22;33163;0.000;0.000;2023-05-07T13:17:54;20.70;77.70
47414;DHT22;33163;0.000;0.000;2023-05-07T13:20:21;20.70;79.00
47414;DHT22;33163;0.000;0.000;2023-05-07T13:22:48;20.70;78.60
47414;DHT22;33163;0.000;0.000;2023-05-07T13:25:15;20.80;78.90
47414;DHT22;33163;0.000;0.000;2023-05-07T13:27:42;20.80;78.90
47414;DHT22;33163;0.000;0.000;2023-05-07T13:30:09;20.80;78.80
47414;DHT22;33163;0.000;0.000;2023-05-07T13:32:35;20.70;77.40
47414;DHT22;33163;0.000;0.000;2023-05-07T13:35:04;20.70;77.60
47414;DHT22;33163;0.000;0.000;2023-05-07T13:37:31;20.80;76.90
47414;DHT22;33163;0.000;0.000;2023-05-07T13:39:58;20.70;76.30
47414;DHT22;33163;0.000;0.000;2023-05-07T13:42:25;20.70;77.80
47414;DHT22;33163;0.000;0.000;2023-05-07T13:44:51;20.70;77.00
47414;DHT22;33163;0.000;0.000;2023-05-07T13:47:18;20.70;77.30
47414;DHT22;33163;0.000;0.000;2023-05-07T13:49:45;20.70;77.20
47414;DHT22;33163;0.000;0.000;2023-05-07T13:52:16;20.70;77.50
47414;DHT22;33163;0.000;0.000;2023-05-07T13:54:43;20.70;77.90
47414;DHT22;33163;0.000;0.000;2023-05-07T13:57:09;20.70;77.20
47414;DHT22;33163;0.000;0.000;2023-05-07T13:59:36;20.70;76.70
47414;DHT22;33163;0.000;0.000;2023-05-07T14:02:03;20.70;77.90
47414;DHT22;33163;0.000;0.000;2023-05-07T14:04:30;20.70;77.20
47414;DHT22;33163;0.000;0.000;2023-05-07T14:06:57;20.70;76.60
47414;DHT22;33163;0.000;0.000;2023-05-07T14:09:25;20.70;76.40
47414;DHT22;33163;0.000;0.000;2023-05-07T14:11:52;20.70;76.40
47414;DHT22;33163;0.000;0.000;2023-05-07T14:14:18;20.70;77.40
47414;DHT22;33163;0.000;0.000;2023-05-07T14:16:45;20.70;77.30
47414;DHT22;33163;0.000;0.000;2023-05-07T14:19:12;20.70;77.70
47414;DHT22;33163;0.000;0.000;2023-05-07T14:21:39;20.70;78.50
47414;DHT22;33163;0.000;0.000;2023-05-07T14:24:07;20.70;78.60
47414;DHT22;33163;0.000;0.000;2023-05-07T14:26:35;20.70;78.80
47414;DHT22;33163;0.000;0.000;2023-05-07T14:29:02;20.70;78.70
47414;DHT22;33163;0.000;0.000;2023-05-07T14:31:29;20.70;78.70
47414;DHT22;33163;0.000;0.000;2023-05-07T14:33:55;20.80;78.60
47414;DHT22;33163;0.000;0.000;2023-05-07T14:36:23;20.80;78.40
47414;DHT22;33163;0.000;0.000;2023-05-07T14:38:51;20.80;78.40
47414;DHT22;33163;0.000;0.000;2023-05-07T14:41:19;20.80;78.10
47414;DHT22;33163;0.000;0.000;2023-05-07T14:43:47;20.80;78.10
47414;DHT22;33163;0.000;0.000;2023-05-07T14:46:15;20.80;78.00
47414;DHT22;33163;0.000;0.000;2023-05-07T14:48:43;20.80;77.90
47414;DHT22;33163;0.000;0.000;2023-05-07T14:51:10;20.80;77.70
47414;DHT22;33163;0.000;0.000;2023-05-07T14:53:37;20.80;77.70
47414;DHT22;33163;0.000;0.000;2023-05-07T14:56:04;20.80;77.70
47414;DHT22;33163;0.000;0.000;2023-05-07T14:58:31;20.80;77.80
47414;DHT22;33163;0.000;0.000;2023-05-07T15:01:00;20.80;77.70
47414;DHT22;33163;0.000;0.000;2023-05-07T15:03:27;20.80;77.60
47414;DHT22;33163;0.000;0.000;2023-05-07T15:05:54;20.80;77.50
47414;DHT22;33163;0.000;0.000;2023-05-07T15:08:21;20.80;77.60
47414;DHT22;33163;0.000;0.000;2023-05-07T15:10:48;20.80;77.60
47414;DHT22;33163;0.000;0.000;2023-05-07T15:13:15;20.80;77.50
47414;DHT22;33163;0.000;0.000;2023-05-07T15:15:42;20.80;77.50
47414;DHT22;33163;0.000;0.000;2023-05-07T15:18:11;20.80;77.60
47414;DHT22;33163;0.000;0.000;2023-05-07T15:20:38;20.80;77.60
47414;DHT22;33163;0.000;0.000;2023-05-07T15:23:06;20.80;77.50
47414;DHT22;33163;0.000;0.000;2023-05-07T15:25:35;20.80;77.40
47414;DHT22;33163;0.000;0.000;2023-05-07T15:28:02;20.80;77.40
47414;DHT22;33163;0.000;0.000;2023-05-07T15:30:29;20.80;77.50
47414;DHT22;33163;0.000;0.000;2023-05-07T15:32:56;20.80;77.40
47414;DHT22;33163;0.000;0.000;2023-05-07T15:35:24;20.80;77.40
47414;DHT22;33163;0.000;0.000;2023-05-07T15:37:51;20.80;77.30
47414;DHT22;33163;0.000;0.000;2023-05-07T15:40:18;20.80;77.30
47414;DHT22;33163;0.000;0.000;2023-05-07T15:42:45;20.80;77.30
47414;DHT22;33163;0.000;0.000;2023-05-07T15:45:12;20.80;77.20
47414;DHT22;33163;0.000;0.000;2023-05-07T15:47:39;20.80;77.30
47414;DHT22;33163;0.000;0.000;2023-05-07T15:50:06;20.80;77.30
47414;DHT22;33163;0.000;0.000;2023-05-07T15:52:35;20.80;77.20
47414;DHT22;33163;0.000;0.000;2023-05-07T15:55:01;20.80;77.20